createdAt,value
2018-08-24T00:00:06.612Z,21.60
2018-08-24T00:02:34.785Z,21.50
2018-08-24T00:05:02.995Z,21.50
2018-08-24T00:07:31.212Z,21.40
2018-08-24T00:09:59.399Z,21.40
2018-08-24T00:12:27.599Z,21.30
2018-08-24T00:14:55.826Z,21.30
2018-08-24T00:17:30.539Z,21.20
2018-08-24T00:19:59.458Z,21.20
2018-08-24T00:22:27.831Z,21.20
2018-08-24T00:24:56.029Z,21.20
2018-08-24T00:27:24.231Z,21.20
2018-08-24T00:29:52.487Z,21.20
2018-08-24T00:32:20.679Z,21.20
2018-08-24T00:34:48.902Z,21.20
2018-08-24T00:37:17.113Z,21.20
2018-08-24T00:39:45.429Z,21.20
2018-08-24T00:42:14.244Z,21.20
2018-08-24T00:44:42.756Z,21.20
2018-08-24T00:47:10.955Z,21.20
2018-08-24T00:49:39.148Z,21.20
2018-08-24T00:52:07.437Z,21.20
2018-08-24T00:54:36.526Z,21.20
2018-08-24T00:57:04.980Z,21.20
2018-08-24T00:59:33.234Z,21.10
2018-08-24T01:02:01.442Z,21.10
2018-08-24T01:04:34.027Z,21.10
2018-08-24T01:07:07.162Z,21.10
2018-08-24T01:09:35.817Z,21.10
2018-08-24T01:12:10.758Z,21.10
2018-08-24T01:14:40.260Z,21.00
2018-08-24T01:17:13.780Z,21.00
2018-08-24T01:19:42.702Z,21.00
2018-08-24T01:22:10.878Z,21.00
2018-08-24T01:24:39.072Z,21.00
2018-08-24T01:27:08.108Z,20.90
2018-08-24T01:29:37.448Z,20.90
2018-08-24T01:32:05.930Z,20.90
2018-08-24T01:34:34.982Z,20.90
2018-08-24T01:37:03.230Z,20.90
2018-08-24T01:39:31.984Z,20.80
2018-08-24T01:42:00.275Z,20.80
2018-08-24T01:44:28.954Z,20.80
2018-08-24T01:46:57.282Z,20.80
2018-08-24T01:49:25.478Z,20.70
2018-08-24T01:51:53.700Z,20.70
2018-08-24T01:54:21.898Z,20.70
2018-08-24T01:56:50.090Z,20.70
2018-08-24T01:59:18.346Z,20.70
2018-08-24T02:01:46.533Z,20.60
2018-08-24T02:04:14.718Z,20.60
2018-08-24T02:06:42.910Z,20.70
2018-08-24T02:09:12.483Z,20.60
2018-08-24T02:11:40.685Z,20.60
2018-08-24T02:14:11.608Z,20.50
2018-08-24T02:16:41.186Z,20.50
2018-08-24T02:19:12.993Z,20.60
2018-08-24T02:21:46.649Z,20.50
2018-08-24T02:24:14.958Z,20.50
2018-08-24T02:26:44.217Z,20.50
2018-08-24T02:29:12.461Z,20.50
2018-08-24T02:31:45.986Z,20.40
2018-08-24T02:34:14.307Z,20.40
2018-08-24T02:36:42.822Z,20.40
2018-08-24T02:39:13.580Z,20.30
2018-08-24T02:41:42.007Z,20.30
2018-08-24T02:44:10.540Z,20.30
2018-08-24T02:46:39.286Z,20.20
2018-08-24T02:49:07.482Z,20.20
2018-08-24T02:51:35.697Z,20.20
2018-08-24T02:54:03.911Z,20.10
2018-08-24T02:56:32.088Z,20.10
2018-08-24T02:59:00.536Z,20.10
2018-08-24T03:01:28.866Z,20.10
2018-08-24T03:03:57.050Z,20.00
2018-08-24T03:06:25.246Z,20.00
2018-08-24T03:08:53.519Z,20.00
2018-08-24T03:11:21.722Z,20.00
2018-08-24T03:13:49.933Z,19.90
2018-08-24T03:16:18.137Z,19.90
2018-08-24T03:18:46.410Z,19.90
2018-08-24T03:21:14.587Z,19.90
2018-08-24T03:23:42.785Z,19.90
2018-08-24T03:26:10.960Z,19.80
2018-08-24T03:28:39.450Z,19.80
2018-08-24T03:31:07.657Z,19.70
2018-08-24T03:33:35.867Z,19.70
2018-08-24T03:36:04.055Z,19.70
2018-08-24T03:38:32.322Z,19.60
2018-08-24T03:41:00.615Z,19.60
2018-08-24T03:43:28.864Z,19.60
2018-08-24T03:45:57.180Z,19.60
2018-08-24T03:48:25.379Z,19.60
2018-08-24T03:50:53.578Z,19.60
2018-08-24T03:53:21.837Z,19.60
2018-08-24T03:55:49.987Z,19.50
2018-08-24T03:58:18.214Z,19.50
2018-08-24T04:00:46.419Z,19.50
2018-08-24T04:03:14.656Z,19.50
2018-08-24T04:05:42.846Z,19.50
2018-08-24T04:08:11.122Z,19.50
2018-08-24T04:10:39.382Z,19.50
2018-08-24T04:13:07.629Z,19.50
2018-08-24T04:15:35.810Z,19.40
2018-08-24T04:18:04.062Z,19.40
2018-08-24T04:20:32.270Z,19.40
2018-08-24T04:23:00.468Z,19.40
2018-08-24T04:25:28.722Z,19.40
2018-08-24T04:27:57.220Z,19.40
2018-08-24T04:30:25.443Z,19.30
2018-08-24T04:32:53.622Z,19.30
2018-08-24T04:35:21.854Z,19.30
2018-08-24T04:37:50.193Z,19.20
2018-08-24T04:40:18.466Z,19.20
2018-08-24T04:42:46.610Z,19.20
2018-08-24T04:45:14.823Z,19.10
2018-08-24T04:47:43.220Z,19.10
2018-08-24T04:50:11.462Z,19.00
2018-08-24T04:52:39.664Z,19.00
2018-08-24T04:55:08.050Z,19.00
2018-08-24T04:57:36.272Z,19.00
2018-08-24T05:00:04.458Z,18.90
2018-08-24T05:02:32.669Z,18.90
2018-08-24T05:05:00.866Z,18.90
2018-08-24T05:07:29.062Z,18.90
2018-08-24T05:09:57.268Z,18.90
2018-08-24T05:12:25.434Z,18.80
2018-08-24T05:14:53.706Z,18.90
2018-08-24T05:17:21.880Z,18.80
2018-08-24T05:19:50.087Z,18.80
2018-08-24T05:22:18.322Z,18.90
2018-08-24T05:24:47.593Z,18.90
2018-08-24T05:27:15.744Z,19.00
2018-08-24T05:29:43.915Z,19.00
2018-08-24T05:32:12.109Z,19.10
2018-08-24T05:34:40.324Z,19.20
2018-08-24T05:37:08.534Z,19.20
2018-08-24T05:39:36.700Z,19.30
2018-08-24T05:42:04.902Z,19.30
2018-08-24T05:44:33.092Z,19.40
2018-08-24T05:47:01.291Z,19.40
2018-08-24T05:49:29.515Z,19.50
2018-08-24T05:51:57.720Z,19.50
2018-08-24T05:54:25.916Z,19.50
2018-08-24T05:56:54.118Z,19.60
2018-08-24T05:59:22.305Z,19.60
2018-08-24T06:01:50.516Z,19.70
2018-08-24T06:04:18.715Z,19.80
2018-08-24T06:06:46.913Z,19.90
2018-08-24T06:09:16.025Z,20.00
2018-08-24T06:11:44.607Z,20.00
2018-08-24T06:14:13.517Z,20.10
2018-08-24T06:16:47.139Z,20.20
2018-08-24T06:19:15.243Z,20.20
2018-08-24T06:21:43.423Z,20.20
2018-08-24T06:24:11.815Z,20.30
2018-08-24T06:26:40.012Z,20.30
2018-08-24T06:29:08.239Z,20.40
2018-08-24T06:31:36.423Z,20.50
2018-08-24T06:34:04.743Z,20.60
2018-08-24T06:36:33.072Z,20.80
2018-08-24T06:39:01.262Z,20.80
2018-08-24T06:41:29.458Z,20.90
2018-08-24T06:43:57.657Z,21.00
2018-08-24T06:46:25.872Z,21.10
2018-08-24T06:48:54.078Z,21.20
2018-08-24T06:51:22.280Z,21.40
2018-08-24T06:53:50.505Z,21.50
2018-08-24T06:56:18.684Z,21.40
2018-08-24T06:58:46.907Z,21.30
2018-08-24T07:01:15.103Z,21.20
2018-08-24T07:03:43.300Z,21.20
2018-08-24T07:06:11.617Z,21.10
2018-08-24T07:08:39.770Z,21.10
2018-08-24T07:11:07.968Z,21.20
2018-08-24T07:13:36.176Z,21.30
2018-08-24T07:16:04.376Z,21.30
2018-08-24T07:18:36.737Z,21.50
2018-08-24T07:21:05.168Z,21.70
2018-08-24T07:23:33.700Z,21.90
2018-08-24T07:26:01.897Z,22.00
2018-08-24T07:28:30.160Z,22.00
2018-08-24T07:30:58.354Z,22.00
2018-08-24T07:33:26.556Z,22.00
2018-08-24T07:35:54.795Z,21.90
2018-08-24T07:38:23.043Z,21.70
2018-08-24T07:40:51.541Z,21.50
2018-08-24T07:43:19.757Z,21.40
2018-08-24T07:45:47.963Z,21.30
2018-08-24T07:48:16.205Z,21.30
2018-08-24T07:50:44.464Z,21.30
2018-08-24T07:53:12.599Z,21.30
2018-08-24T07:55:40.846Z,21.30
2018-08-24T07:58:09.031Z,21.20
2018-08-24T08:00:37.229Z,21.20
2018-08-24T08:03:05.425Z,21.00
2018-08-24T08:05:33.607Z,21.00
2018-08-24T08:08:01.863Z,20.90
2018-08-24T08:10:35.387Z,20.90
2018-08-24T08:13:03.597Z,20.90
2018-08-24T08:15:31.772Z,20.80
2018-08-24T08:18:00.156Z,20.80
2018-08-24T08:20:29.305Z,20.70
2018-08-24T08:22:58.370Z,20.70
2018-08-24T08:25:26.549Z,20.70
2018-08-24T08:27:55.832Z,20.70
2018-08-24T08:30:24.450Z,20.70
2018-08-24T08:32:52.659Z,20.70
2018-08-24T08:35:20.876Z,20.70
2018-08-24T08:37:49.125Z,20.60
2018-08-24T08:40:17.355Z,20.60
2018-08-24T08:42:46.298Z,20.50
2018-08-24T08:45:14.517Z,20.50
2018-08-24T08:47:42.702Z,20.40
2018-08-24T08:50:10.962Z,20.30
2018-08-24T08:52:39.151Z,20.30
2018-08-24T08:55:08.129Z,20.20
2018-08-24T08:57:36.342Z,20.10
2018-08-24T09:00:05.082Z,20.10
2018-08-24T09:02:33.301Z,20.00
2018-08-24T09:05:01.496Z,19.80
2018-08-24T09:07:29.720Z,19.70
2018-08-24T09:09:57.945Z,19.60
2018-08-24T09:12:26.117Z,19.50
2018-08-24T09:14:54.339Z,19.40
2018-08-24T09:17:27.964Z,19.20
2018-08-24T09:20:01.834Z,19.00
2018-08-24T09:22:35.395Z,18.80
2018-08-24T09:25:09.039Z,18.70
2018-08-24T09:28:39.893Z,18.70
2018-08-24T09:31:13.405Z,18.60
2018-08-24T09:33:41.623Z,18.50
2018-08-24T09:36:15.127Z,18.50
2018-08-24T09:38:43.317Z,18.50
2018-08-24T09:41:11.673Z,18.60
2018-08-24T09:43:46.201Z,18.60
2018-08-24T09:46:14.367Z,18.60
2018-08-24T09:48:47.843Z,18.60
2018-08-24T09:51:21.487Z,18.60
2018-08-24T09:53:55.143Z,18.70
2018-08-24T09:56:23.346Z,18.90
2018-08-24T09:58:51.527Z,18.90
2018-08-24T10:01:25.486Z,19.10
2018-08-24T10:03:58.933Z,19.20
2018-08-24T10:06:32.625Z,19.30
2018-08-24T10:09:00.869Z,19.40
2018-08-24T10:11:29.075Z,19.50
2018-08-24T10:13:57.287Z,19.60
2018-08-24T10:16:25.481Z,19.60
2018-08-24T10:18:53.679Z,19.80
2018-08-24T10:21:21.893Z,20.10
2018-08-24T10:23:50.076Z,20.30
2018-08-24T10:26:18.293Z,20.40
2018-08-24T10:28:46.498Z,20.50
2018-08-24T10:31:14.685Z,20.60
2018-08-24T10:33:42.941Z,20.60
2018-08-24T10:36:11.115Z,20.60
2018-08-24T10:38:39.360Z,20.60
2018-08-24T10:41:07.768Z,20.60
2018-08-24T10:43:35.967Z,20.70
2018-08-24T10:46:04.157Z,21.00
2018-08-24T10:48:32.355Z,21.30
2018-08-24T10:51:00.559Z,21.40
2018-08-24T10:53:28.813Z,21.60
2018-08-24T10:55:57.120Z,22.70
2018-08-24T10:58:25.518Z,24.10
2018-08-24T11:00:53.703Z,24.60
2018-08-24T11:03:21.927Z,25.20
2018-08-24T11:05:50.132Z,26.00
2018-08-24T11:08:18.389Z,27.20
2018-08-24T11:10:46.581Z,27.70
2018-08-24T11:13:14.796Z,28.10
2018-08-24T11:15:44.331Z,28.60
2018-08-24T11:18:12.573Z,28.90
2018-08-24T11:20:41.811Z,29.30
2018-08-24T11:23:10.143Z,29.10
2018-08-24T11:25:38.492Z,29.30
2018-08-24T11:28:06.782Z,29.50
2018-08-24T11:30:35.008Z,29.60
2018-08-24T11:33:03.207Z,29.80
2018-08-24T11:35:31.410Z,30.20
2018-08-24T11:37:59.688Z,30.60
2018-08-24T11:40:27.964Z,31.10
2018-08-24T11:42:56.436Z,31.40
2018-08-24T11:45:24.639Z,31.70
2018-08-24T11:47:52.868Z,32.00
2018-08-24T11:50:21.046Z,32.40
2018-08-24T11:52:49.264Z,32.60
2018-08-24T11:55:17.466Z,32.90
2018-08-24T11:57:45.657Z,33.30
2018-08-24T12:00:13.932Z,33.80
2018-08-24T12:02:42.143Z,34.10
2018-08-24T12:05:10.342Z,34.20
2018-08-24T12:07:38.542Z,34.40
2018-08-24T12:10:06.756Z,34.80
2018-08-24T12:12:35.024Z,35.10
2018-08-24T12:15:03.164Z,35.10
2018-08-24T12:17:35.038Z,33.90
2018-08-24T12:20:03.264Z,32.50
2018-08-24T12:22:31.474Z,31.20
2018-08-24T12:24:59.676Z,31.00
2018-08-24T12:27:27.916Z,30.60
2018-08-24T12:29:56.351Z,30.50
2018-08-24T12:32:24.576Z,30.50
2018-08-24T12:34:52.870Z,30.70
2018-08-24T12:37:20.967Z,31.20
2018-08-24T12:39:49.179Z,31.50
2018-08-24T12:42:17.405Z,31.80
2018-08-24T12:44:45.630Z,32.20
2018-08-24T12:47:13.822Z,32.70
2018-08-24T12:49:42.217Z,32.70
2018-08-24T12:52:10.458Z,32.90
2018-08-24T12:54:38.612Z,32.70
2018-08-24T12:57:06.799Z,32.30
2018-08-24T12:59:35.021Z,31.60
2018-08-24T13:02:03.253Z,31.20
2018-08-24T13:04:31.453Z,30.60
2018-08-24T13:06:59.659Z,30.60
2018-08-24T13:09:27.899Z,30.30
2018-08-24T13:11:56.097Z,29.60
2018-08-24T13:14:24.316Z,29.00
2018-08-24T13:16:52.510Z,28.40
2018-08-24T13:19:20.756Z,28.00
2018-08-24T13:21:48.968Z,27.50
2018-08-24T13:24:17.153Z,27.20
2018-08-24T13:26:45.360Z,26.90
2018-08-24T13:29:13.567Z,26.60
2018-08-24T13:31:41.764Z,26.40
2018-08-24T13:34:09.964Z,26.30
2018-08-24T13:36:38.194Z,26.10
2018-08-24T13:39:08.199Z,26.00
2018-08-24T13:41:36.720Z,25.70
2018-08-24T13:44:04.922Z,25.70
2018-08-24T13:46:33.130Z,25.70
2018-08-24T13:49:01.324Z,26.10
2018-08-24T13:51:30.647Z,26.60
2018-08-24T13:55:28.329Z,27.30
2018-08-24T13:57:56.761Z,27.80
2018-08-24T14:00:25.495Z,28.00
2018-08-24T14:02:53.675Z,28.40
2018-08-24T14:05:22.171Z,28.70
2018-08-24T14:07:50.339Z,28.70
2018-08-24T14:10:18.561Z,28.50
2018-08-24T14:12:46.788Z,28.10
2018-08-24T14:15:15.006Z,27.70
2018-08-24T14:17:47.481Z,27.40
2018-08-24T14:20:15.965Z,27.00
2018-08-24T14:22:44.174Z,26.60
2018-08-24T14:25:12.435Z,26.40
2018-08-24T14:27:40.685Z,26.40
2018-08-24T14:30:09.078Z,26.40
2018-08-24T14:32:37.286Z,26.40
2018-08-24T14:35:05.491Z,26.30
2018-08-24T14:37:33.702Z,26.20
2018-08-24T14:40:01.911Z,26.10
2018-08-24T14:42:30.124Z,25.90
2018-08-24T14:44:58.349Z,25.80
2018-08-24T14:47:26.598Z,25.70
2018-08-24T14:49:54.805Z,25.70
2018-08-24T14:52:23.317Z,25.70
2018-08-24T14:54:51.562Z,25.80
2018-08-24T14:57:20.111Z,25.80
2018-08-24T14:59:48.311Z,25.70
2018-08-24T15:02:16.658Z,25.50
2018-08-24T15:04:44.909Z,25.50
2018-08-24T15:07:13.102Z,25.50
2018-08-24T15:09:41.300Z,25.40
2018-08-24T15:12:09.515Z,25.30
2018-08-24T15:14:37.703Z,25.10
2018-08-24T15:17:06.241Z,25.00
2018-08-24T15:19:34.376Z,25.00
2018-08-24T15:22:02.563Z,24.90
2018-08-24T15:24:30.793Z,24.80
2018-08-24T15:26:58.983Z,24.70
2018-08-24T15:29:27.210Z,24.60
2018-08-24T15:31:55.441Z,24.50
2018-08-24T15:34:23.619Z,24.30
2018-08-24T15:36:51.803Z,24.30
2018-08-24T15:39:20.017Z,24.10
2018-08-24T15:41:48.195Z,24.00
2018-08-24T15:44:16.380Z,23.90
2018-08-24T15:46:44.603Z,23.90
2018-08-24T15:49:12.782Z,23.70
2018-08-24T15:51:41.053Z,23.60
2018-08-24T15:54:09.283Z,23.60
2018-08-24T15:56:37.487Z,23.60
2018-08-24T15:59:05.682Z,23.50
2018-08-24T16:01:33.861Z,23.50
2018-08-24T16:04:02.055Z,23.50
2018-08-24T16:06:30.256Z,23.50
2018-08-24T16:08:58.462Z,23.30
2018-08-24T16:11:26.688Z,23.30
2018-08-24T16:13:54.918Z,23.20
2018-08-24T16:16:23.114Z,23.20
2018-08-24T16:18:51.323Z,23.10
2018-08-24T16:21:19.535Z,23.00
2018-08-24T16:23:47.760Z,23.00
2018-08-24T16:26:21.252Z,23.00
2018-08-24T16:28:49.512Z,23.00
2018-08-24T16:31:17.698Z,23.00
2018-08-24T16:33:45.888Z,23.10
2018-08-24T16:36:14.453Z,23.10
2018-08-24T16:38:42.743Z,23.10
2018-08-24T16:41:10.887Z,23.00
2018-08-24T16:43:39.086Z,23.10
2018-08-24T16:46:07.499Z,23.10
2018-08-24T16:48:35.875Z,23.00
2018-08-24T16:51:04.051Z,23.00
2018-08-24T16:53:32.552Z,23.00
2018-08-24T16:56:00.751Z,22.90
2018-08-24T16:58:29.019Z,22.90
2018-08-24T17:00:57.225Z,22.90
2018-08-24T17:03:25.432Z,22.90
2018-08-24T17:05:53.603Z,22.80
2018-08-24T17:08:21.867Z,22.80
2018-08-24T17:10:50.079Z,22.60
2018-08-24T17:13:18.287Z,22.60
2018-08-24T17:15:46.547Z,22.50
2018-08-24T17:18:14.748Z,22.50
2018-08-24T17:20:42.979Z,22.40
2018-08-24T17:23:11.201Z,22.40
2018-08-24T17:25:39.455Z,22.30
2018-08-24T17:28:07.717Z,22.30
2018-08-24T17:30:35.903Z,22.20
2018-08-24T17:33:04.127Z,22.20
2018-08-24T17:35:32.672Z,22.10
2018-08-24T17:38:00.909Z,22.10
2018-08-24T17:40:29.077Z,22.00
2018-08-24T17:42:57.288Z,21.90
2018-08-24T17:45:25.501Z,21.90
2018-08-24T17:47:53.921Z,21.80
2018-08-24T17:50:22.099Z,21.70
2018-08-24T17:52:50.295Z,21.60
2018-08-24T17:55:18.505Z,21.60
2018-08-24T17:57:46.771Z,21.50
2018-08-24T18:00:15.028Z,21.50
2018-08-24T18:02:43.219Z,21.50
2018-08-24T18:05:11.403Z,21.50
2018-08-24T18:07:39.618Z,21.50
2018-08-24T18:10:07.833Z,21.50
2018-08-24T18:12:36.041Z,21.50
2018-08-24T18:15:04.440Z,21.50
2018-08-24T18:17:32.479Z,21.40
2018-08-24T18:20:00.695Z,21.40
2018-08-24T18:22:28.889Z,21.50
2018-08-24T18:24:57.117Z,21.40
2018-08-24T18:27:25.287Z,21.40
2018-08-24T18:29:53.489Z,21.40
2018-08-24T18:32:21.677Z,21.40
2018-08-24T18:34:49.913Z,21.40
2018-08-24T18:37:18.185Z,21.30
2018-08-24T18:39:46.364Z,21.30
2018-08-24T18:42:14.747Z,21.30
2018-08-24T18:44:42.957Z,21.30
2018-08-24T18:47:11.195Z,21.20
2018-08-24T18:49:39.402Z,21.20
2018-08-24T18:52:07.651Z,21.20
2018-08-24T18:54:35.847Z,21.10
2018-08-24T18:57:04.053Z,21.10
2018-08-24T18:59:32.315Z,21.10
2018-08-24T19:02:00.573Z,21.00
2018-08-24T19:04:28.803Z,21.00
2018-08-24T19:06:57.160Z,21.00
2018-08-24T19:09:25.367Z,21.00
2018-08-24T19:11:58.976Z,20.90
2018-08-24T19:14:27.181Z,20.90
2018-08-24T19:16:55.393Z,20.80
2018-08-24T19:21:36.496Z,20.70
2018-08-24T19:24:04.694Z,20.60
2018-08-24T19:26:32.936Z,20.60
2018-08-24T19:29:06.441Z,20.50
2018-08-24T19:31:35.299Z,20.40
2018-08-24T19:34:03.490Z,20.40
2018-08-24T19:36:31.710Z,20.40
2018-08-24T19:38:59.927Z,20.40
2018-08-24T19:41:33.420Z,20.40
2018-08-24T19:44:01.657Z,20.40
2018-08-24T19:46:29.865Z,20.40
2018-08-24T19:49:03.344Z,20.40
2018-08-24T19:51:31.648Z,20.40
2018-08-24T19:53:59.862Z,20.30
2018-08-24T19:56:28.057Z,20.30
2018-08-24T19:59:01.569Z,20.30
2018-08-24T20:01:29.882Z,20.30
2018-08-24T20:03:58.062Z,20.30
2018-08-24T20:06:31.775Z,20.30
2018-08-24T20:09:05.231Z,20.20
2018-08-24T20:11:33.458Z,20.20
2018-08-24T20:14:01.627Z,20.10
2018-08-24T20:16:35.236Z,20.10
2018-08-24T20:19:03.736Z,20.10
2018-08-24T20:21:31.949Z,20.10
2018-08-24T20:24:00.156Z,20.00
2018-08-24T20:26:28.336Z,20.00
2018-08-24T20:28:56.610Z,20.00
2018-08-24T20:31:24.881Z,19.90
2018-08-24T20:33:53.084Z,19.90
2018-08-24T20:36:21.286Z,19.90
2018-08-24T20:38:49.513Z,19.90
2018-08-24T20:41:17.712Z,19.80
2018-08-24T20:43:45.916Z,19.80
2018-08-24T20:46:14.120Z,19.70
2018-08-24T20:48:42.412Z,19.60
2018-08-24T20:51:10.609Z,19.60
2018-08-24T20:53:38.893Z,19.50
2018-08-24T20:56:07.072Z,19.50
2018-08-24T20:58:35.350Z,19.40
2018-08-24T21:01:03.558Z,19.40
2018-08-24T21:03:31.760Z,19.30
2018-08-24T21:05:59.985Z,19.30
2018-08-24T21:08:28.217Z,19.30
2018-08-24T21:10:56.403Z,19.30
2018-08-24T21:13:24.609Z,19.30
2018-08-24T21:15:52.816Z,19.30
2018-08-24T21:18:21.091Z,19.30
2018-08-24T21:20:49.274Z,19.30
2018-08-24T21:23:17.470Z,19.30
2018-08-24T21:25:45.693Z,19.20
2018-08-24T21:28:13.929Z,19.20
2018-08-24T21:30:42.145Z,19.20
2018-08-24T21:33:10.427Z,19.20
2018-08-24T21:35:38.622Z,19.10
2018-08-24T21:38:06.900Z,19.10
2018-08-24T21:40:35.109Z,19.10
2018-08-24T21:43:03.310Z,19.10
2018-08-24T21:45:31.530Z,19.10
2018-08-24T21:47:59.848Z,19.00
2018-08-24T21:50:28.047Z,19.00
2018-08-24T21:52:56.273Z,18.90
2018-08-24T21:55:24.459Z,18.90
2018-08-24T21:57:52.872Z,18.90
2018-08-24T22:00:21.879Z,18.80
2018-08-24T22:02:50.073Z,18.80
2018-08-24T22:05:18.259Z,18.80
2018-08-24T22:07:46.479Z,18.70
2018-08-24T22:10:14.687Z,18.70
2018-08-24T22:12:42.888Z,18.60
2018-08-24T22:15:11.105Z,18.60
2018-08-24T22:17:39.307Z,18.50
2018-08-24T22:20:07.782Z,18.50
2018-08-24T22:22:36.043Z,18.40
2018-08-24T22:25:04.250Z,18.40
2018-08-24T22:27:32.449Z,18.30
2018-08-24T22:30:00.662Z,18.30
2018-08-24T22:32:28.869Z,18.20
2018-08-24T22:34:57.057Z,18.20
2018-08-24T22:37:25.268Z,18.10
2018-08-24T22:39:53.474Z,18.10
2018-08-24T22:42:21.685Z,18.00
2018-08-24T22:44:49.882Z,18.00
2018-08-24T22:47:18.142Z,17.90
2018-08-24T22:49:46.412Z,17.90
2018-08-24T22:52:14.590Z,17.80
2018-08-24T22:54:42.804Z,17.80
2018-08-24T22:57:11.297Z,17.80
2018-08-24T22:59:39.607Z,17.80
2018-08-24T23:02:07.847Z,17.70
2018-08-24T23:04:36.039Z,17.70
2018-08-24T23:07:04.234Z,17.70
2018-08-24T23:09:32.420Z,17.70
2018-08-24T23:12:00.654Z,17.60
2018-08-24T23:14:28.836Z,17.60
2018-08-24T23:16:57.028Z,17.60
2018-08-24T23:19:25.347Z,17.50
2018-08-24T23:21:53.546Z,17.50
2018-08-24T23:24:21.810Z,17.50
2018-08-24T23:26:50.016Z,17.40
2018-08-24T23:29:18.214Z,17.40
2018-08-24T23:31:46.402Z,17.30
2018-08-24T23:34:14.975Z,17.30
2018-08-24T23:36:43.090Z,17.20
2018-08-24T23:39:12.131Z,17.20
2018-08-24T23:41:40.328Z,17.20
2018-08-24T23:44:09.010Z,17.20
2018-08-24T23:46:37.186Z,17.20
2018-08-24T23:49:05.907Z,17.20
2018-08-24T23:51:34.173Z,17.20
2018-08-24T23:54:02.386Z,17.20
2018-08-24T23:56:30.606Z,17.20
2018-08-24T23:58:58.801Z,17.20
